createdAt,value
2023-02-07T00:01:37.096Z,19.50
2023-02-07T00:04:04.308Z,18.70
2023-02-07T00:06:33.917Z,19.00
2023-02-07T00:09:02.211Z,18.80
2023-02-07T00:11:29.217Z,19.10
2023-02-07T00:13:57.909Z,19.40
2023-02-07T00:16:26.126Z,19.40
2023-02-07T00:18:53.593Z,19.00
2023-02-07T00:21:23.605Z,18.60
2023-02-07T00:23:50.979Z,18.90
2023-02-07T00:26:20.933Z,20.60
2023-02-07T00:28:48.907Z,20.00
2023-02-07T00:31:30.965Z,20.30
2023-02-07T00:34:00.665Z,20.40
2023-02-07T00:36:30.223Z,21.20
2023-02-07T00:39:03.383Z,21.20
2023-02-07T00:41:31.041Z,21.30
2023-02-07T00:43:58.159Z,22.30
2023-02-07T00:46:25.349Z,23.40
2023-02-07T00:48:52.401Z,24.50
2023-02-07T00:51:19.982Z,24.50
2023-02-07T00:53:48.055Z,25.10
2023-02-07T00:56:15.270Z,25.60
2023-02-07T00:58:42.048Z,27.10
2023-02-07T01:01:09.002Z,27.10
2023-02-07T01:03:35.887Z,27.20
2023-02-07T01:06:02.602Z,27.10
2023-02-07T01:08:29.697Z,27.50
2023-02-07T01:10:56.534Z,27.50
2023-02-07T01:13:23.316Z,27.60
2023-02-07T01:15:50.536Z,27.30
2023-02-07T01:18:17.665Z,25.50
2023-02-07T01:20:44.640Z,25.70
2023-02-07T01:23:13.289Z,24.60
2023-02-07T01:25:40.657Z,24.60
2023-02-07T01:28:07.458Z,23.30
2023-02-07T01:30:40.395Z,23.90
2023-02-07T01:33:07.416Z,23.30
2023-02-07T01:35:34.589Z,23.10
2023-02-07T01:38:02.748Z,22.70
2023-02-07T01:40:30.627Z,22.50
2023-02-07T01:43:00.370Z,22.30
2023-02-07T01:45:29.992Z,21.10
2023-02-07T01:48:00.707Z,21.80
2023-02-07T01:50:27.989Z,21.20
2023-02-07T01:52:57.382Z,20.30
2023-02-07T01:55:28.798Z,21.40
2023-02-07T01:57:55.816Z,20.70
2023-02-07T02:00:23.355Z,21.50
2023-02-07T02:02:50.187Z,22.40
2023-02-07T02:05:18.842Z,21.60
2023-02-07T02:07:45.680Z,21.50
2023-02-07T02:10:21.981Z,20.90
2023-02-07T02:12:57.687Z,18.90
2023-02-07T02:15:50.902Z,19.30
2023-02-07T02:18:37.688Z,20.40
2023-02-07T02:21:19.534Z,21.50
2023-02-07T02:24:23.601Z,21.20
2023-02-07T02:27:22.760Z,20.30
2023-02-07T02:30:23.586Z,20.80
2023-02-07T02:33:02.222Z,21.50
2023-02-07T02:35:51.663Z,22.10
2023-02-07T02:38:35.259Z,22.10
2023-02-07T02:41:14.660Z,21.60
2023-02-07T02:44:05.267Z,22.20
2023-02-07T02:46:36.372Z,22.10
2023-02-07T02:49:05.126Z,22.40
2023-02-07T02:51:32.673Z,21.50
2023-02-07T02:54:27.780Z,22.30
2023-02-07T02:57:12.525Z,22.10
2023-02-07T02:59:58.412Z,22.20
2023-02-07T03:02:55.497Z,20.00
2023-02-07T03:05:25.481Z,19.80
2023-02-07T03:08:18.143Z,20.60
2023-02-07T03:11:02.625Z,20.40
2023-02-07T03:13:45.581Z,21.50
2023-02-07T03:16:34.727Z,21.30
2023-02-07T03:19:08.628Z,21.80
2023-02-07T03:21:59.097Z,22.20
2023-02-07T03:24:28.116Z,22.80
2023-02-07T03:26:57.962Z,22.60
2023-02-07T03:29:26.214Z,22.80
2023-02-07T03:32:00.185Z,21.80
2023-02-07T03:34:36.319Z,22.10
2023-02-07T03:37:21.809Z,22.40
2023-02-07T03:39:49.218Z,22.30
2023-02-07T03:42:29.560Z,22.50
2023-02-07T03:44:58.206Z,22.80
2023-02-07T03:47:26.770Z,23.60
2023-02-07T03:49:53.858Z,23.70
2023-02-07T03:52:20.645Z,23.80
2023-02-07T03:54:47.412Z,23.70
2023-02-07T03:57:14.372Z,24.50
2023-02-07T03:59:41.132Z,24.80
2023-02-07T04:02:07.940Z,25.80
2023-02-07T04:04:34.781Z,24.90
2023-02-07T04:07:01.561Z,24.90
2023-02-07T04:09:28.313Z,24.60
2023-02-07T04:11:55.257Z,24.70
2023-02-07T04:14:22.327Z,23.90
2023-02-07T04:16:49.912Z,24.20
2023-02-07T04:19:16.964Z,23.90
2023-02-07T04:21:44.009Z,23.70
2023-02-07T04:24:12.178Z,23.80
2023-02-07T04:26:39.495Z,23.90
2023-02-07T04:29:07.358Z,23.70
2023-02-07T04:31:34.505Z,23.70
2023-02-07T04:34:01.282Z,23.10
2023-02-07T04:36:32.258Z,23.80
2023-02-07T04:38:59.029Z,23.70
2023-02-07T04:41:26.824Z,23.90
2023-02-07T04:43:53.605Z,23.80
2023-02-07T04:46:20.404Z,21.60
2023-02-07T04:48:48.505Z,23.60
2023-02-07T04:51:16.162Z,24.20
2023-02-07T04:53:42.985Z,25.00
2023-02-07T04:56:10.083Z,25.70
2023-02-07T04:58:38.961Z,25.30
2023-02-07T05:01:05.874Z,25.00
2023-02-07T05:03:34.071Z,24.70
2023-02-07T05:06:00.800Z,23.70
2023-02-07T05:08:27.578Z,23.80
2023-02-07T05:10:56.500Z,24.00
2023-02-07T05:13:23.808Z,23.70
2023-02-07T05:15:51.278Z,23.60
2023-02-07T05:18:18.304Z,23.00
2023-02-07T05:20:45.211Z,22.30
2023-02-07T05:23:12.232Z,20.90
2023-02-07T05:25:40.897Z,23.20
2023-02-07T05:28:07.876Z,23.70
2023-02-07T05:30:35.167Z,23.40
2023-02-07T05:33:07.791Z,25.80
2023-02-07T05:35:40.144Z,26.90
2023-02-07T05:38:18.412Z,27.70
2023-02-07T05:41:26.659Z,28.60
2023-02-07T05:43:53.506Z,28.80
2023-02-07T05:46:20.499Z,30.30
2023-02-07T05:48:47.549Z,29.20
2023-02-07T05:51:17.362Z,28.40
2023-02-07T05:53:44.197Z,26.60
2023-02-07T05:56:11.355Z,26.90
2023-02-07T05:58:38.142Z,27.90
2023-02-07T06:01:05.158Z,28.40
2023-02-07T06:03:36.050Z,29.10
2023-02-07T06:06:02.851Z,27.80
2023-02-07T06:08:29.507Z,27.60
2023-02-07T06:11:07.072Z,27.50
2023-02-07T06:13:34.857Z,31.70
2023-02-07T06:16:01.586Z,33.50
2023-02-07T06:22:43.346Z,31.70
2023-02-07T06:25:21.745Z,32.30
2023-02-07T06:27:48.776Z,32.40
2023-02-07T06:30:15.833Z,31.20
2023-02-07T06:32:42.587Z,30.40
2023-02-07T06:35:09.600Z,29.90
2023-02-07T06:37:36.346Z,29.00
2023-02-07T06:40:03.574Z,28.40
2023-02-07T06:42:30.362Z,27.90
2023-02-07T06:44:57.180Z,27.60
2023-02-07T06:47:24.172Z,27.50
2023-02-07T06:49:50.963Z,27.30
2023-02-07T06:52:18.993Z,27.20
2023-02-07T06:54:45.926Z,27.00
2023-02-07T06:57:12.745Z,26.80
2023-02-07T06:59:39.639Z,27.00
2023-02-07T07:02:06.946Z,26.80
2023-02-07T07:04:33.864Z,26.70
2023-02-07T07:07:00.685Z,26.90
2023-02-07T07:09:27.626Z,26.60
2023-02-07T07:11:54.513Z,26.70
2023-02-07T07:14:21.360Z,27.10
2023-02-07T07:16:48.137Z,27.30
2023-02-07T07:19:15.069Z,27.20
2023-02-07T07:21:41.916Z,26.90
2023-02-07T07:24:08.687Z,26.80
2023-02-07T07:26:48.493Z,27.80
2023-02-07T07:29:17.473Z,26.90
2023-02-07T07:31:44.913Z,26.90
2023-02-07T07:34:11.750Z,27.00
2023-02-07T07:36:41.074Z,27.30
2023-02-07T07:39:08.912Z,27.40
2023-02-07T07:41:35.676Z,28.00
2023-02-07T07:44:02.488Z,28.70
2023-02-07T07:46:29.671Z,29.20
2023-02-07T07:48:56.387Z,29.90
2023-02-07T07:51:23.374Z,30.50
2023-02-07T07:53:50.078Z,29.30
2023-02-07T07:56:16.864Z,27.20
2023-02-07T07:58:43.578Z,25.60
2023-02-07T08:01:10.344Z,23.80
2023-02-07T08:03:37.244Z,22.20
2023-02-07T08:06:04.326Z,23.40
2023-02-07T08:08:31.066Z,21.90
2023-02-07T08:11:05.812Z,20.10
2023-02-07T08:13:33.418Z,21.50
2023-02-07T08:16:01.581Z,19.90
2023-02-07T08:18:29.360Z,19.70
2023-02-07T08:20:56.661Z,20.60
2023-02-07T08:23:23.425Z,21.30
2023-02-07T08:25:50.293Z,18.30
2023-02-07T08:28:18.366Z,16.50
2023-02-07T08:30:47.545Z,16.60
2023-02-07T08:33:15.650Z,17.60
2023-02-07T08:35:42.579Z,20.20
2023-02-07T08:38:09.942Z,18.10
2023-02-07T08:40:37.624Z,20.60
2023-02-07T08:43:12.270Z,22.90
2023-02-07T08:45:41.167Z,19.80
2023-02-07T08:48:08.323Z,19.10
2023-02-07T08:50:35.264Z,18.30
2023-02-07T08:53:02.061Z,14.60
2023-02-07T08:55:29.177Z,14.30
2023-02-07T08:57:55.948Z,20.00
2023-02-07T09:00:23.736Z,21.40
2023-02-07T09:02:50.440Z,19.10
2023-02-07T09:05:17.292Z,19.70
2023-02-07T09:07:44.061Z,19.10
2023-02-07T09:10:11.148Z,18.30
2023-02-07T09:12:38.189Z,19.40
2023-02-07T09:15:05.975Z,18.80
2023-02-07T09:17:32.870Z,18.00
2023-02-07T09:19:59.752Z,17.70
2023-02-07T09:22:26.596Z,17.50
2023-02-07T09:24:53.491Z,17.00
2023-02-07T09:27:20.290Z,16.60
2023-02-07T09:29:47.073Z,16.50
2023-02-07T09:32:13.802Z,15.00
2023-02-07T09:34:40.577Z,14.80
2023-02-07T09:37:07.372Z,15.80
2023-02-07T09:39:36.930Z,15.00
2023-02-07T09:42:40.858Z,16.70
2023-02-07T09:45:16.252Z,17.20
2023-02-07T09:47:45.832Z,17.40
2023-02-07T09:50:21.036Z,17.60
2023-02-07T09:53:19.775Z,17.70
2023-02-07T09:55:59.324Z,17.20
2023-02-07T09:58:53.341Z,14.90
2023-02-07T10:01:24.214Z,17.10
2023-02-07T10:03:53.668Z,18.50
2023-02-07T10:06:27.307Z,18.80
2023-02-07T10:09:00.161Z,18.10
2023-02-07T10:11:35.898Z,17.70
2023-02-07T10:14:13.680Z,18.00
2023-02-07T10:16:46.738Z,18.50
2023-02-07T10:19:51.412Z,18.10
2023-02-07T10:22:40.749Z,14.30
2023-02-07T10:25:18.887Z,14.20
2023-02-07T10:28:22.545Z,15.30
2023-02-07T10:30:54.304Z,16.80
2023-02-07T10:33:25.779Z,15.10
2023-02-07T10:35:53.591Z,14.90
2023-02-07T10:39:08.791Z,17.10
2023-02-07T10:41:42.877Z,17.10
2023-02-07T10:44:17.897Z,16.80
2023-02-07T10:46:47.415Z,15.90
2023-02-07T10:49:25.367Z,15.00
2023-02-07T10:51:56.810Z,14.50
2023-02-07T10:54:24.511Z,15.30
2023-02-07T10:56:57.799Z,16.10
2023-02-07T10:59:45.935Z,14.60
2023-02-07T11:02:31.657Z,14.50
2023-02-07T11:05:03.611Z,14.50
2023-02-07T11:07:39.431Z,16.20
2023-02-07T11:10:39.872Z,14.50
2023-02-07T11:13:33.643Z,16.00
2023-02-07T11:16:08.811Z,15.60
2023-02-07T11:18:45.825Z,16.00
2023-02-07T11:21:26.968Z,15.80
2023-02-07T11:23:57.363Z,14.80
2023-02-07T11:26:24.502Z,14.80
2023-02-07T11:29:02.535Z,14.70
2023-02-07T11:31:32.569Z,15.10
2023-02-07T11:34:28.577Z,15.00
2023-02-07T11:37:07.839Z,14.90
2023-02-07T11:39:34.704Z,14.80
2023-02-07T11:42:02.557Z,14.90
2023-02-07T11:44:31.265Z,14.90
2023-02-07T11:47:04.342Z,14.90
2023-02-07T11:49:54.627Z,14.90
2023-02-07T11:52:22.414Z,15.00
2023-02-07T11:55:01.138Z,15.00
2023-02-07T11:57:33.257Z,15.80
2023-02-07T12:00:30.338Z,15.10
2023-02-07T12:03:18.571Z,13.50
2023-02-07T12:05:50.166Z,15.40
2023-02-07T12:08:20.416Z,15.10
2023-02-07T12:10:52.409Z,14.30
2023-02-07T12:13:41.971Z,15.20
2023-02-07T12:16:20.210Z,15.30
2023-02-07T12:18:56.491Z,13.40
2023-02-07T12:21:45.969Z,13.30
2023-02-07T12:24:21.192Z,13.20
2023-02-07T12:27:00.255Z,13.80
2023-02-07T12:29:50.200Z,11.80
2023-02-07T12:32:46.716Z,13.70
2023-02-07T12:35:39.270Z,11.80
2023-02-07T12:38:46.938Z,12.80
2023-02-07T12:41:28.321Z,15.30
2023-02-07T12:44:23.700Z,13.90
2023-02-07T12:47:20.875Z,14.70
2023-02-07T12:50:23.308Z,13.00
2023-02-07T12:52:55.914Z,14.70
2023-02-07T12:56:04.883Z,14.70
2023-02-07T12:58:45.852Z,13.50
2023-02-07T13:01:32.128Z,12.50
2023-02-07T13:04:37.747Z,11.80
2023-02-07T13:07:16.809Z,13.00
2023-02-07T13:10:06.880Z,11.00
2023-02-07T13:12:45.845Z,12.60
2023-02-07T13:15:34.907Z,12.50
2023-02-07T13:18:27.636Z,12.00
2023-02-07T13:21:34.180Z,9.80
2023-02-07T13:24:04.906Z,11.60
2023-02-07T13:26:34.865Z,9.80
2023-02-07T13:29:04.966Z,9.90
2023-02-07T13:31:49.285Z,9.80
2023-02-07T13:34:21.417Z,10.10
2023-02-07T13:36:49.651Z,10.50
2023-02-07T13:39:28.606Z,11.70
2023-02-07T13:42:09.506Z,11.10
2023-02-07T13:44:54.744Z,10.20
2023-02-07T13:47:48.374Z,8.80
2023-02-07T13:50:24.099Z,8.40
2023-02-07T13:53:19.912Z,10.00
2023-02-07T13:55:48.283Z,10.00
2023-02-07T13:58:51.816Z,9.30
2023-02-07T14:01:29.203Z,11.70
2023-02-07T14:04:05.024Z,10.50
2023-02-07T14:06:37.575Z,10.60
2023-02-07T14:09:35.947Z,9.50
2023-02-07T14:12:16.119Z,10.20
2023-02-07T14:14:51.037Z,9.60
2023-02-07T14:17:26.761Z,7.20
2023-02-07T14:19:56.044Z,8.20
2023-02-07T14:22:51.647Z,8.90
2023-02-07T14:25:21.377Z,9.70
2023-02-07T14:27:51.433Z,7.50
2023-02-07T14:30:27.342Z,7.70
2023-02-07T14:33:12.251Z,8.50
2023-02-07T14:36:21.824Z,8.90
2023-02-07T14:39:02.955Z,8.80
2023-02-07T14:41:32.449Z,8.60
2023-02-07T14:44:09.617Z,9.10
2023-02-07T14:46:46.770Z,7.60
2023-02-07T14:49:33.502Z,7.30
2023-02-07T14:52:16.316Z,5.50
2023-02-07T14:54:48.049Z,6.30
2023-02-07T14:57:33.561Z,7.10
2023-02-07T15:00:00.486Z,4.50
2023-02-07T15:02:38.467Z,4.70
2023-02-07T15:05:25.741Z,5.90
2023-02-07T15:08:03.572Z,6.70
2023-02-07T15:10:34.766Z,7.00
2023-02-07T15:13:05.082Z,5.20
2023-02-07T15:15:43.148Z,5.20
2023-02-07T15:18:14.583Z,2.30
2023-02-07T15:20:41.975Z,3.70
2023-02-07T15:23:14.951Z,4.20
2023-02-07T15:25:44.024Z,4.50
2023-02-07T15:28:31.936Z,3.80
2023-02-07T15:31:01.033Z,2.30
2023-02-07T15:33:40.718Z,3.30
2023-02-07T15:36:43.652Z,3.50
2023-02-07T15:39:25.869Z,3.70
2023-02-07T15:41:55.493Z,3.30
2023-02-07T15:44:22.311Z,3.70
2023-02-07T15:46:52.042Z,1.50
2023-02-07T15:49:32.885Z,3.10
2023-02-07T15:52:19.440Z,2.40
2023-02-07T15:54:51.160Z,2.80
2023-02-07T15:57:25.576Z,1.40
2023-02-07T15:59:55.426Z,1.50
2023-02-07T16:02:31.377Z,2.30
2023-02-07T16:04:59.648Z,1.30
2023-02-07T16:07:27.164Z,1.20
2023-02-07T16:09:54.202Z,2.60
2023-02-07T16:12:44.208Z,1.00
2023-02-07T16:15:34.951Z,1.00
2023-02-07T16:18:02.923Z,1.00
2023-02-07T16:20:31.528Z,1.60
2023-02-07T16:23:01.882Z,1.00
2023-02-07T16:25:34.976Z,1.00
2023-02-07T16:28:03.906Z,1.90
2023-02-07T16:30:35.834Z,1.30
2023-02-07T16:33:07.696Z,1.00
2023-02-07T16:35:35.504Z,2.00
2023-02-07T16:38:02.851Z,2.10
2023-02-07T16:40:30.047Z,2.20
2023-02-07T16:42:57.387Z,2.90
2023-02-07T16:45:26.679Z,3.20
2023-02-07T16:47:54.119Z,3.30
2023-02-07T16:50:24.419Z,2.80
2023-02-07T16:52:52.976Z,3.40
2023-02-07T16:55:20.885Z,2.90
2023-02-07T16:57:49.259Z,3.80
2023-02-07T17:00:22.020Z,3.90
2023-02-07T17:02:50.455Z,3.80
2023-02-07T17:05:18.632Z,4.30
2023-02-07T17:07:45.754Z,4.30
2023-02-07T17:10:34.152Z,4.70
2023-02-07T17:13:00.856Z,5.10
2023-02-07T17:15:27.636Z,5.20
2023-02-07T17:17:58.372Z,5.60
2023-02-07T17:20:31.427Z,5.70
2023-02-07T17:22:58.277Z,6.00
2023-02-07T17:25:27.918Z,5.90
2023-02-07T17:27:55.742Z,5.80
2023-02-07T17:30:28.442Z,5.80
2023-02-07T17:32:56.251Z,6.20
2023-02-07T17:35:24.137Z,6.00
2023-02-07T17:37:50.897Z,6.10
2023-02-07T17:40:32.773Z,7.30
2023-02-07T17:42:59.531Z,6.10
2023-02-07T17:45:28.045Z,6.60
2023-02-07T17:47:58.187Z,6.80
2023-02-07T17:50:29.325Z,7.20
2023-02-07T17:52:57.309Z,7.20
2023-02-07T17:55:24.551Z,7.20
2023-02-07T17:57:51.329Z,7.30
2023-02-07T18:00:24.832Z,7.20
2023-02-07T18:02:51.598Z,7.10
2023-02-07T18:05:18.910Z,7.20
2023-02-07T18:07:46.982Z,7.30
2023-02-07T18:10:23.262Z,7.20
2023-02-07T18:12:50.281Z,7.20
2023-02-07T18:15:18.883Z,7.00
2023-02-07T18:17:47.589Z,7.00
2023-02-07T18:20:18.417Z,6.90
2023-02-07T18:22:45.412Z,7.00
2023-02-07T18:25:12.290Z,7.20
2023-02-07T18:27:39.217Z,7.30
2023-02-07T18:30:11.241Z,7.50
2023-02-07T18:32:39.215Z,7.70
2023-02-07T18:35:07.207Z,7.80
2023-02-07T18:37:37.095Z,8.00
2023-02-07T18:40:13.046Z,8.80
2023-02-07T18:42:58.498Z,12.90
2023-02-07T18:45:25.508Z,9.30
2023-02-07T18:47:52.493Z,8.70
2023-02-07T18:50:22.063Z,8.80
2023-02-07T18:52:48.884Z,9.10
2023-02-07T18:55:15.867Z,9.10
2023-02-07T18:57:42.923Z,9.30
2023-02-07T19:00:10.633Z,9.40
2023-02-07T19:02:37.552Z,9.60
2023-02-07T19:05:04.696Z,9.70
2023-02-07T19:07:31.594Z,9.90
2023-02-07T19:09:58.404Z,10.00
2023-02-07T19:12:25.930Z,10.30
2023-02-07T19:14:52.941Z,10.50
2023-02-07T19:17:20.181Z,10.60
2023-02-07T19:19:47.279Z,10.60
2023-02-07T19:22:15.082Z,10.70
2023-02-07T19:24:43.294Z,10.90
2023-02-07T19:27:11.773Z,10.90
2023-02-07T19:29:38.828Z,11.90
2023-02-07T19:32:08.539Z,11.10
2023-02-07T19:34:37.782Z,11.20
2023-02-07T19:37:05.031Z,11.20
2023-02-07T19:39:31.939Z,11.30
2023-02-07T19:41:58.723Z,11.40
2023-02-07T19:44:25.597Z,11.60
2023-02-07T19:46:52.374Z,11.80
2023-02-07T19:49:19.190Z,11.90
2023-02-07T19:51:46.046Z,12.90
2023-02-07T19:54:12.848Z,12.00
2023-02-07T19:56:42.295Z,12.30
2023-02-07T19:59:10.276Z,12.60
2023-02-07T20:01:38.113Z,12.40
2023-02-07T20:04:05.859Z,12.80
2023-02-07T20:06:34.273Z,12.90
2023-02-07T20:09:04.236Z,13.50
2023-02-07T20:11:31.286Z,13.70
2023-02-07T20:14:03.422Z,13.70
2023-02-07T20:16:34.838Z,13.80
2023-02-07T20:19:02.404Z,13.70
2023-02-07T20:21:31.650Z,13.70
2023-02-07T20:23:59.317Z,13.60
2023-02-07T20:26:31.423Z,13.70
2023-02-07T20:29:03.934Z,13.70
2023-02-07T20:31:33.447Z,13.70
2023-02-07T20:34:02.018Z,13.60
2023-02-07T20:36:30.063Z,13.70
2023-02-07T20:38:58.768Z,13.70
2023-02-07T20:41:31.408Z,13.60
2023-02-07T20:44:06.568Z,13.50
2023-02-07T20:46:37.369Z,13.50
2023-02-07T20:49:12.844Z,13.70
2023-02-07T20:51:42.373Z,14.70
2023-02-07T20:54:11.880Z,13.60
2023-02-07T20:56:38.848Z,13.50
2023-02-07T20:59:07.068Z,13.60
2023-02-07T21:01:35.060Z,13.50
2023-02-07T21:04:04.679Z,13.50
2023-02-07T21:06:32.608Z,13.50
2023-02-07T21:09:01.521Z,13.40
2023-02-07T21:11:33.581Z,13.40
2023-02-07T21:14:01.749Z,13.40
2023-02-07T21:16:30.751Z,13.30
2023-02-07T21:18:57.989Z,13.30
2023-02-07T21:21:25.016Z,14.00
2023-02-07T21:23:52.778Z,16.40
2023-02-07T21:26:19.776Z,16.70
2023-02-07T21:28:47.004Z,16.90
2023-02-07T21:31:17.147Z,16.80
2023-02-07T21:33:44.749Z,17.00
2023-02-07T21:36:14.374Z,16.80
2023-02-07T21:38:44.990Z,16.70
2023-02-07T21:41:13.000Z,16.70
2023-02-07T21:43:40.295Z,16.30
2023-02-07T21:46:10.230Z,16.10
2023-02-07T21:48:39.084Z,15.80
2023-02-07T21:51:20.541Z,15.30
2023-02-07T21:53:53.161Z,15.60
2023-02-07T21:56:24.363Z,16.00
2023-02-07T21:58:56.876Z,15.80
2023-02-07T22:01:24.611Z,16.20
2023-02-07T22:03:54.704Z,16.20
2023-02-07T22:06:23.072Z,16.20
2023-02-07T22:08:56.907Z,17.00
2023-02-07T22:11:25.056Z,17.20
2023-02-07T22:13:52.783Z,16.90
2023-02-07T22:16:21.904Z,17.30
2023-02-07T22:18:49.004Z,17.20
2023-02-07T22:21:27.896Z,17.30
2023-02-07T22:23:55.639Z,17.40
2023-02-07T22:26:23.704Z,18.00
2023-02-07T22:28:51.191Z,18.60
2023-02-07T22:31:26.650Z,18.80
2023-02-07T22:33:55.045Z,18.10
2023-02-07T22:36:24.655Z,17.80
2023-02-07T22:38:51.623Z,17.50
2023-02-07T22:41:19.558Z,17.30
2023-02-07T22:43:46.481Z,17.30
2023-02-07T22:46:15.980Z,17.70
2023-02-07T22:48:43.066Z,17.90
2023-02-07T22:51:25.227Z,18.30
2023-02-07T22:53:55.601Z,17.80
2023-02-07T22:56:22.380Z,17.80
2023-02-07T22:58:49.559Z,17.30
2023-02-07T23:01:25.586Z,17.20
2023-02-07T23:03:53.180Z,17.20
2023-02-07T23:06:20.734Z,17.60
2023-02-07T23:08:48.431Z,17.40
2023-02-07T23:11:16.361Z,17.60
2023-02-07T23:13:43.469Z,17.30
2023-02-07T23:16:12.503Z,17.20
2023-02-07T23:18:39.379Z,16.90
2023-02-07T23:21:12.382Z,16.50
2023-02-07T23:23:39.446Z,17.60
2023-02-07T23:26:11.738Z,16.40
2023-02-07T23:28:38.918Z,16.60
2023-02-07T23:31:07.817Z,16.50
2023-02-07T23:33:35.369Z,16.80
2023-02-07T23:36:02.596Z,16.90
2023-02-07T23:38:29.633Z,16.80
2023-02-07T23:40:56.859Z,16.80
2023-02-07T23:43:25.129Z,16.50
2023-02-07T23:45:52.521Z,16.60
2023-02-07T23:48:19.543Z,16.40
2023-02-07T23:50:53.983Z,16.40
2023-02-07T23:53:22.067Z,16.70
2023-02-07T23:55:53.960Z,16.70
2023-02-07T23:58:21.213Z,17.70
